Stoke Golding, United Kingdom
Current Conditions -  °F | °C
As of 11:20 AM on Thursday 18 Dec 2014 (Local Time) from EGBE Reporting Station
Broken Clouds Broken Clouds  
Wind Chill: 57°   Ceiling: 2300
Heat Index: 57°   Visibility: 6mi
Dew Point: 52°   Wind: 20mph
Humidity: 82%   Direction: 230°SW
Pressure: 29.71"   Gusts: 33mph
Location:  52.57°N, 1.41°W
Report Text: EGBE 181120Z 23017G29KT 200V260 9999 FEW018 BKN023 14/11 Q1006
Loading
Personal Weather Stations






























Interactive Weather Map New forecast layout! Learn more

10-Day Weather Forecast

Advertisements
Track Severe Weather on mobile